sensor_id;sensor_type;location;lat;lon;timestamp;P1;P2;P0
46381;PMS5003;66809;52.974;-2.514;2023-03-05T00:01:37;16.016666666666666;14.716666666666667;
46381;PMS5003;66809;52.974;-2.514;2023-03-05T00:03:36;15.85;14.583333333333334;
46381;PMS5003;66809;52.974;-2.514;2023-03-05T00:05:37;15.966666666666667;14.666666666666666;
46381;PMS5003;66809;52.974;-2.514;2023-03-05T00:07:37;16.0;14.733333333333333;
46381;PMS5003;66809;52.974;-2.514;2023-03-05T00:09:36;15.933333333333334;14.633333333333333;
46381;PMS5003;66809;52.974;-2.514;2023-03-05T00:11:36;15.966666666666667;14.666666666666666;
46381;PMS5003;66809;52.974;-2.514;2023-03-05T00:13:37;16.15;14.816666666666666;
46381;PMS5003;66809;52.974;-2.514;2023-03-05T00:15:39;16.166666666666668;14.833333333333334;
46381;PMS5003;66809;52.974;-2.514;2023-03-05T00:17:36;16.133333333333333;14.816666666666666;
46381;PMS5003;66809;52.974;-2.514;2023-03-05T00:19:37;16.133333333333333;14.816666666666666;
46381;PMS5003;66809;52.974;-2.514;2023-03-05T00:21:37;16.166666666666668;14.866666666666667;
46381;PMS5003;66809;52.974;-2.514;2023-03-05T00:23:36;16.083333333333332;14.8;
46381;PMS5003;66809;52.974;-2.514;2023-03-05T00:25:37;16.083333333333332;14.883333333333333;
46381;PMS5003;66809;52.974;-2.514;2023-03-05T00:27:37;16.166666666666668;14.983333333333333;
46381;PMS5003;66809;52.974;-2.514;2023-03-05T00:29:37;16.066666666666666;14.916666666666666;
46381;PMS5003;66809;52.974;-2.514;2023-03-05T00:31:36;16.15;15.033333333333333;
46381;PMS5003;66809;52.974;-2.514;2023-03-05T00:33:37;16.3;15.2;
46381;PMS5003;66809;52.974;-2.514;2023-03-05T00:35:38;16.433333333333334;15.316666666666666;
46381;PMS5003;66809;52.974;-2.514;2023-03-05T00:37:37;16.516666666666666;15.433333333333334;
46381;PMS5003;66809;52.974;-2.514;2023-03-05T00:39:37;16.75;15.633333333333333;
46381;PMS5003;66809;52.974;-2.514;2023-03-05T00:41:36;16.866666666666667;15.7;
46381;PMS5003;66809;52.974;-2.514;2023-03-05T00:43:37;17.016666666666666;15.85;
46381;PMS5003;66809;52.974;-2.514;2023-03-05T00:45:36;17.083333333333332;15.9;
46381;PMS5003;66809;52.974;-2.514;2023-03-05T00:47:37;17.016666666666666;15.866666666666667;
46381;PMS5003;66809;52.974;-2.514;2023-03-05T00:49:36;17.2;16.083333333333332;
46381;PMS5003;66809;52.974;-2.514;2023-03-05T00:51:37;17.166666666666668;16.05;
46381;PMS5003;66809;52.974;-2.514;2023-03-05T00:53:37;17.183333333333334;16.1;
46381;PMS5003;66809;52.974;-2.514;2023-03-05T00:55:36;17.133333333333333;16.066666666666666;
46381;PMS5003;66809;52.974;-2.514;2023-03-05T00:57:37;17.133333333333333;16.05;
46381;PMS5003;66809;52.974;-2.514;2023-03-05T00:59:37;17.15;16.05;
46381;PMS5003;66809;52.974;-2.514;2023-03-05T01:01:36;17.083333333333332;16.0;
46381;PMS5003;66809;52.974;-2.514;2023-03-05T01:03:37;17.083333333333332;15.983333333333333;
46381;PMS5003;66809;52.974;-2.514;2023-03-05T01:05:37;16.866666666666667;15.766666666666667;
46381;PMS5003;66809;52.974;-2.514;2023-03-05T01:07:36;16.866666666666667;15.7;
46381;PMS5003;66809;52.974;-2.514;2023-03-05T01:09:37;16.85;15.683333333333334;
46381;PMS5003;66809;52.974;-2.514;2023-03-05T01:11:36;16.716666666666665;15.6;
46381;PMS5003;66809;52.974;-2.514;2023-03-05T01:13:37;16.616666666666667;15.516666666666667;
46381;PMS5003;66809;52.974;-2.514;2023-03-05T01:15:36;16.55;15.433333333333334;
46381;PMS5003;66809;52.974;-2.514;2023-03-05T01:17:37;16.533333333333335;15.45;
46381;PMS5003;66809;52.974;-2.514;2023-03-05T01:19:36;16.333333333333332;15.266666666666667;
46381;PMS5003;66809;52.974;-2.514;2023-03-05T01:21:36;16.4;15.333333333333334;
46381;PMS5003;66809;52.974;-2.514;2023-03-05T01:23:37;16.466666666666665;15.383333333333333;
46381;PMS5003;66809;52.974;-2.514;2023-03-05T01:25:37;16.233333333333334;15.15;
46381;PMS5003;66809;52.974;-2.514;2023-03-05T01:27:36;15.883333333333333;14.833333333333334;
46381;PMS5003;66809;52.974;-2.514;2023-03-05T01:29:37;15.916666666666666;14.85;
46381;PMS5003;66809;52.974;-2.514;2023-03-05T01:31:37;15.65;14.55;
46381;PMS5003;66809;52.974;-2.514;2023-03-05T01:33:36;15.433333333333334;14.366666666666667;
46381;PMS5003;66809;52.974;-2.514;2023-03-05T01:35:37;15.283333333333333;14.216666666666667;
46381;PMS5003;66809;52.974;-2.514;2023-03-05T01:37:36;15.05;13.966666666666667;
46381;PMS5003;66809;52.974;-2.514;2023-03-05T01:39:37;14.633333333333333;13.633333333333333;
46381;PMS5003;66809;52.974;-2.514;2023-03-05T01:41:37;14.216666666666667;13.3;
46381;PMS5003;66809;52.974;-2.514;2023-03-05T01:43:37;13.966666666666667;13.05;
46381;PMS5003;66809;52.974;-2.514;2023-03-05T01:45:37;13.9;13.05;
46381;PMS5003;66809;52.974;-2.514;2023-03-05T01:47:37;13.866666666666667;12.983333333333333;
46381;PMS5003;66809;52.974;-2.514;2023-03-05T01:49:37;13.716666666666667;12.783333333333333;
46381;PMS5003;66809;52.974;-2.514;2023-03-05T01:51:38;13.583333333333334;12.65;
46381;PMS5003;66809;52.974;-2.514;2023-03-05T01:53:37;13.533333333333333;12.55;
46381;PMS5003;66809;52.974;-2.514;2023-03-05T01:55:36;13.666666666666666;12.65;
46381;PMS5003;66809;52.974;-2.514;2023-03-05T01:57:39;13.566666666666666;12.6;
46381;PMS5003;66809;52.974;-2.514;2023-03-05T01:59:37;13.516666666666667;12.55;
46381;PMS5003;66809;52.974;-2.514;2023-03-05T02:01:37;13.5;12.533333333333333;
46381;PMS5003;66809;52.974;-2.514;2023-03-05T02:03:37;13.483333333333333;12.55;
46381;PMS5003;66809;52.974;-2.514;2023-03-05T02:05:38;13.483333333333333;12.6;
46381;PMS5003;66809;52.974;-2.514;2023-03-05T02:07:37;13.35;12.55;
46381;PMS5003;66809;52.974;-2.514;2023-03-05T02:09:37;13.416666666666666;12.616666666666667;
46381;PMS5003;66809;52.974;-2.514;2023-03-05T02:11:37;13.516666666666667;12.666666666666666;
46381;PMS5003;66809;52.974;-2.514;2023-03-05T02:13:37;13.5;12.6;
46381;PMS5003;66809;52.974;-2.514;2023-03-05T02:15:37;13.466666666666667;12.566666666666666;
46381;PMS5003;66809;52.974;-2.514;2023-03-05T02:17:37;13.55;12.65;
46381;PMS5003;66809;52.974;-2.514;2023-03-05T02:19:53;13.583333333333334;12.683333333333334;
46381;PMS5003;66809;52.974;-2.514;2023-03-05T02:21:37;13.633333333333333;12.65;
46381;PMS5003;66809;52.974;-2.514;2023-03-05T02:23:37;13.433333333333334;12.533333333333333;
46381;PMS5003;66809;52.974;-2.514;2023-03-05T02:25:36;13.416666666666666;12.5;
46381;PMS5003;66809;52.974;-2.514;2023-03-05T02:27:36;13.466666666666667;12.483333333333333;
46381;PMS5003;66809;52.974;-2.514;2023-03-05T02:29:36;13.216666666666667;12.25;
46381;PMS5003;66809;52.974;-2.514;2023-03-05T02:31:37;13.083333333333334;12.183333333333334;
46381;PMS5003;66809;52.974;-2.514;2023-03-05T02:33:36;12.9;12.0;
46381;PMS5003;66809;52.974;-2.514;2023-03-05T02:35:37;12.766666666666667;11.85;
46381;PMS5003;66809;52.974;-2.514;2023-03-05T02:37:37;12.766666666666667;11.85;
46381;PMS5003;66809;52.974;-2.514;2023-03-05T02:39:37;12.75;11.816666666666666;
46381;PMS5003;66809;52.974;-2.514;2023-03-05T02:41:37;12.833333333333334;11.816666666666666;
46381;PMS5003;66809;52.974;-2.514;2023-03-05T02:43:37;12.883333333333333;11.883333333333333;
46381;PMS5003;66809;52.974;-2.514;2023-03-05T02:45:37;12.833333333333334;11.8;
46381;PMS5003;66809;52.974;-2.514;2023-03-05T02:47:36;12.8;11.783333333333333;
46381;PMS5003;66809;52.974;-2.514;2023-03-05T02:49:36;12.7;11.716666666666667;
46381;PMS5003;66809;52.974;-2.514;2023-03-05T02:51:37;12.783333333333333;11.833333333333334;
46381;PMS5003;66809;52.974;-2.514;2023-03-05T02:53:36;12.65;11.766666666666667;
46381;PMS5003;66809;52.974;-2.514;2023-03-05T02:55:37;12.483333333333333;11.6;
46381;PMS5003;66809;52.974;-2.514;2023-03-05T02:57:37;12.433333333333334;11.533333333333333;
46381;PMS5003;66809;52.974;-2.514;2023-03-05T02:59:37;12.616666666666667;11.633333333333333;
46381;PMS5003;66809;52.974;-2.514;2023-03-05T03:01:36;12.633333333333333;11.633333333333333;
46381;PMS5003;66809;52.974;-2.514;2023-03-05T03:03:37;12.666666666666666;11.616666666666667;
46381;PMS5003;66809;52.974;-2.514;2023-03-05T03:05:36;12.733333333333333;11.666666666666666;
46381;PMS5003;66809;52.974;-2.514;2023-03-05T03:07:37;12.833333333333334;11.75;
46381;PMS5003;66809;52.974;-2.514;2023-03-05T03:09:36;12.766666666666667;11.683333333333334;
46381;PMS5003;66809;52.974;-2.514;2023-03-05T03:11:36;12.666666666666666;11.6;
46381;PMS5003;66809;52.974;-2.514;2023-03-05T03:13:37;12.616666666666667;11.616666666666667;
46381;PMS5003;66809;52.974;-2.514;2023-03-05T03:15:36;12.75;11.683333333333334;
46381;PMS5003;66809;52.974;-2.514;2023-03-05T03:17:37;12.733333333333333;11.683333333333334;
46381;PMS5003;66809;52.974;-2.514;2023-03-05T03:19:37;13.033333333333333;11.933333333333334;
46381;PMS5003;66809;52.974;-2.514;2023-03-05T03:21:37;13.016666666666667;11.983333333333333;
46381;PMS5003;66809;52.974;-2.514;2023-03-05T03:23:36;13.133333333333333;12.083333333333334;
46381;PMS5003;66809;52.974;-2.514;2023-03-05T03:25:36;13.116666666666667;12.083333333333334;
46381;PMS5003;66809;52.974;-2.514;2023-03-05T03:27:37;13.066666666666666;12.1;
46381;PMS5003;66809;52.974;-2.514;2023-03-05T03:29:36;13.116666666666667;12.183333333333334;
46381;PMS5003;66809;52.974;-2.514;2023-03-05T03:31:36;13.35;12.35;
46381;PMS5003;66809;52.974;-2.514;2023-03-05T03:33:37;13.55;12.483333333333333;
46381;PMS5003;66809;52.974;-2.514;2023-03-05T03:35:36;13.633333333333333;12.55;
46381;PMS5003;66809;52.974;-2.514;2023-03-05T03:37:36;13.766666666666667;12.666666666666666;
46381;PMS5003;66809;52.974;-2.514;2023-03-05T03:39:36;13.933333333333334;12.8;
46381;PMS5003;66809;52.974;-2.514;2023-03-05T03:41:39;14.016666666666667;12.933333333333334;
46381;PMS5003;66809;52.974;-2.514;2023-03-05T03:43:37;14.033333333333333;12.933333333333334;
46381;PMS5003;66809;52.974;-2.514;2023-03-05T03:45:39;14.1;13.0;
46381;PMS5003;66809;52.974;-2.514;2023-03-05T03:47:37;14.216666666666667;13.083333333333334;
46381;PMS5003;66809;52.974;-2.514;2023-03-05T03:49:37;14.25;13.133333333333333;
46381;PMS5003;66809;52.974;-2.514;2023-03-05T03:51:37;14.233333333333333;13.05;
46381;PMS5003;66809;52.974;-2.514;2023-03-05T03:53:37;14.35;13.066666666666666;
46381;PMS5003;66809;52.974;-2.514;2023-03-05T03:55:36;14.383333333333333;13.116666666666667;
46381;PMS5003;66809;52.974;-2.514;2023-03-05T03:57:37;14.566666666666666;13.266666666666667;
46381;PMS5003;66809;52.974;-2.514;2023-03-05T03:59:37;14.45;13.25;
46381;PMS5003;66809;52.974;-2.514;2023-03-05T04:01:36;14.4;13.25;
46381;PMS5003;66809;52.974;-2.514;2023-03-05T04:03:36;14.366666666666667;13.233333333333333;
46381;PMS5003;66809;52.974;-2.514;2023-03-05T04:05:37;14.333333333333334;13.2;
46381;PMS5003;66809;52.974;-2.514;2023-03-05T04:07:36;14.266666666666667;13.133333333333333;
46381;PMS5003;66809;52.974;-2.514;2023-03-05T04:09:37;14.3;13.133333333333333;
46381;PMS5003;66809;52.974;-2.514;2023-03-05T04:11:37;14.266666666666667;13.05;
46381;PMS5003;66809;52.974;-2.514;2023-03-05T04:13:36;14.383333333333333;13.033333333333333;
46381;PMS5003;66809;52.974;-2.514;2023-03-05T04:15:37;14.333333333333334;12.95;
46381;PMS5003;66809;52.974;-2.514;2023-03-05T04:17:36;14.183333333333334;12.8;
46381;PMS5003;66809;52.974;-2.514;2023-03-05T04:19:37;13.933333333333334;12.616666666666667;
46381;PMS5003;66809;52.974;-2.514;2023-03-05T04:21:37;13.733333333333333;12.433333333333334;
46381;PMS5003;66809;52.974;-2.514;2023-03-05T04:23:38;13.833333333333334;12.483333333333333;
46381;PMS5003;66809;52.974;-2.514;2023-03-05T04:25:37;13.85;12.5;
46381;PMS5003;66809;52.974;-2.514;2023-03-05T04:27:37;13.85;12.466666666666667;
46381;PMS5003;66809;52.974;-2.514;2023-03-05T04:29:36;13.816666666666666;12.366666666666667;
46381;PMS5003;66809;52.974;-2.514;2023-03-05T04:31:37;13.7;12.283333333333333;
46381;PMS5003;66809;52.974;-2.514;2023-03-05T04:33:37;13.466666666666667;12.116666666666667;
46381;PMS5003;66809;52.974;-2.514;2023-03-05T04:35:36;13.366666666666667;12.0;
46381;PMS5003;66809;52.974;-2.514;2023-03-05T04:37:37;13.2;11.866666666666667;
46381;PMS5003;66809;52.974;-2.514;2023-03-05T04:39:36;13.066666666666666;11.683333333333334;
46381;PMS5003;66809;52.974;-2.514;2023-03-05T04:41:37;12.933333333333334;11.5;
46381;PMS5003;66809;52.974;-2.514;2023-03-05T04:43:37;12.8;11.316666666666666;
46381;PMS5003;66809;52.974;-2.514;2023-03-05T04:45:38;12.683333333333334;11.183333333333334;
46381;PMS5003;66809;52.974;-2.514;2023-03-05T04:47:37;12.6;11.133333333333333;
46381;PMS5003;66809;52.974;-2.514;2023-03-05T04:49:37;12.483333333333333;11.0;
46381;PMS5003;66809;52.974;-2.514;2023-03-05T04:51:36;12.4;10.95;
46381;PMS5003;66809;52.974;-2.514;2023-03-05T04:53:37;12.183333333333334;10.8;
46381;PMS5003;66809;52.974;-2.514;2023-03-05T04:55:36;12.133333333333333;10.716666666666667;
46381;PMS5003;66809;52.974;-2.514;2023-03-05T04:57:37;12.15;10.683333333333334;
46381;PMS5003;66809;52.974;-2.514;2023-03-05T04:59:37;12.05;10.583333333333334;
46381;PMS5003;66809;52.974;-2.514;2023-03-05T05:01:37;12.033333333333333;10.533333333333333;
46381;PMS5003;66809;52.974;-2.514;2023-03-05T05:03:37;12.0;10.516666666666667;
46381;PMS5003;66809;52.974;-2.514;2023-03-05T05:05:36;11.883333333333333;10.416666666666666;
46381;PMS5003;66809;52.974;-2.514;2023-03-05T05:07:37;11.833333333333334;10.366666666666667;
46381;PMS5003;66809;52.974;-2.514;2023-03-05T05:09:37;11.733333333333333;10.333333333333334;
46381;PMS5003;66809;52.974;-2.514;2023-03-05T05:11:37;11.8;10.433333333333334;
46381;PMS5003;66809;52.974;-2.514;2023-03-05T05:13:36;11.683333333333334;10.4;
46381;PMS5003;66809;52.974;-2.514;2023-03-05T05:15:38;11.6;10.416666666666666;
46381;PMS5003;66809;52.974;-2.514;2023-03-05T05:17:36;11.583333333333334;10.416666666666666;
46381;PMS5003;66809;52.974;-2.514;2023-03-05T05:19:37;11.466666666666667;10.316666666666666;
46381;PMS5003;66809;52.974;-2.514;2023-03-05T05:21:36;11.516666666666667;10.35;
46381;PMS5003;66809;52.974;-2.514;2023-03-05T05:23:37;11.316666666666666;10.183333333333334;
46381;PMS5003;66809;52.974;-2.514;2023-03-05T05:25:37;11.216666666666667;10.1;
46381;PMS5003;66809;52.974;-2.514;2023-03-05T05:27:37;11.316666666666666;10.2;
46381;PMS5003;66809;52.974;-2.514;2023-03-05T05:29:37;11.4;10.333333333333334;
46381;PMS5003;66809;52.974;-2.514;2023-03-05T05:31:37;11.4;10.316666666666666;
46381;PMS5003;66809;52.974;-2.514;2023-03-05T05:33:36;11.5;10.366666666666667;
46381;PMS5003;66809;52.974;-2.514;2023-03-05T05:35:38;11.45;10.316666666666666;
46381;PMS5003;66809;52.974;-2.514;2023-03-05T05:37:36;11.4;10.283333333333333;
46381;PMS5003;66809;52.974;-2.514;2023-03-05T05:39:37;11.35;10.35;
46381;PMS5003;66809;52.974;-2.514;2023-03-05T05:41:37;11.35;10.4;
46381;PMS5003;66809;52.974;-2.514;2023-03-05T05:43:36;11.283333333333333;10.383333333333333;
46381;PMS5003;66809;52.974;-2.514;2023-03-05T05:45:36;11.35;10.4;
46381;PMS5003;66809;52.974;-2.514;2023-03-05T05:47:36;11.3;10.35;
46381;PMS5003;66809;52.974;-2.514;2023-03-05T05:49:36;11.383333333333333;10.4;
46381;PMS5003;66809;52.974;-2.514;2023-03-05T05:51:37;11.5;10.533333333333333;
46381;PMS5003;66809;52.974;-2.514;2023-03-05T05:53:36;11.666666666666666;10.716666666666667;
46381;PMS5003;66809;52.974;-2.514;2023-03-05T05:55:38;11.65;10.683333333333334;
46381;PMS5003;66809;52.974;-2.514;2023-03-05T05:57:37;11.6;10.716666666666667;
46381;PMS5003;66809;52.974;-2.514;2023-03-05T05:59:37;11.666666666666666;10.766666666666667;
46381;PMS5003;66809;52.974;-2.514;2023-03-05T06:01:37;11.733333333333333;10.8;
46381;PMS5003;66809;52.974;-2.514;2023-03-05T06:03:36;11.75;10.833333333333334;
46381;PMS5003;66809;52.974;-2.514;2023-03-05T06:05:37;11.866666666666667;10.9;
46381;PMS5003;66809;52.974;-2.514;2023-03-05T06:07:37;11.916666666666666;10.95;
46381;PMS5003;66809;52.974;-2.514;2023-03-05T06:09:37;12.05;11.05;
46381;PMS5003;66809;52.974;-2.514;2023-03-05T06:11:36;12.133333333333333;11.116666666666667;
46381;PMS5003;66809;52.974;-2.514;2023-03-05T06:13:36;12.283333333333333;11.3;
46381;PMS5003;66809;52.974;-2.514;2023-03-05T06:15:37;12.383333333333333;11.366666666666667;
46381;PMS5003;66809;52.974;-2.514;2023-03-05T06:17:36;12.6;11.566666666666666;
46381;PMS5003;66809;52.974;-2.514;2023-03-05T06:19:36;12.8;11.7;
46381;PMS5003;66809;52.974;-2.514;2023-03-05T06:21:37;12.816666666666666;11.716666666666667;
46381;PMS5003;66809;52.974;-2.514;2023-03-05T06:23:37;12.9;11.8;
46381;PMS5003;66809;52.974;-2.514;2023-03-05T06:25:37;13.083333333333334;11.983333333333333;
46381;PMS5003;66809;52.974;-2.514;2023-03-05T06:27:37;13.0;11.916666666666666;
46381;PMS5003;66809;52.974;-2.514;2023-03-05T06:29:37;12.983333333333333;11.9;
46381;PMS5003;66809;52.974;-2.514;2023-03-05T06:31:37;12.966666666666667;11.916666666666666;
46381;PMS5003;66809;52.974;-2.514;2023-03-05T06:33:37;13.0;11.933333333333334;
46381;PMS5003;66809;52.974;-2.514;2023-03-05T06:35:37;13.2;12.133333333333333;
46381;PMS5003;66809;52.974;-2.514;2023-03-05T06:37:36;13.516666666666667;12.366666666666667;
46381;PMS5003;66809;52.974;-2.514;2023-03-05T06:39:36;13.733333333333333;12.533333333333333;
46381;PMS5003;66809;52.974;-2.514;2023-03-05T06:41:37;13.783333333333333;12.6;
46381;PMS5003;66809;52.974;-2.514;2023-03-05T06:43:37;13.916666666666666;12.733333333333333;
46381;PMS5003;66809;52.974;-2.514;2023-03-05T06:45:36;13.9;12.783333333333333;
46381;PMS5003;66809;52.974;-2.514;2023-03-05T06:47:37;13.95;12.833333333333334;
46381;PMS5003;66809;52.974;-2.514;2023-03-05T06:49:37;14.016666666666667;12.95;
46381;PMS5003;66809;52.974;-2.514;2023-03-05T06:51:38;14.116666666666667;12.983333333333333;
46381;PMS5003;66809;52.974;-2.514;2023-03-05T06:53:37;14.616666666666667;13.4;
46381;PMS5003;66809;52.974;-2.514;2023-03-05T06:55:37;15.316666666666666;14.066666666666666;
46381;PMS5003;66809;52.974;-2.514;2023-03-05T06:57:36;15.5;14.133333333333333;
46381;PMS5003;66809;52.974;-2.514;2023-03-05T06:59:37;15.483333333333333;14.15;
46381;PMS5003;66809;52.974;-2.514;2023-03-05T07:01:37;15.533333333333333;14.25;
46381;PMS5003;66809;52.974;-2.514;2023-03-05T07:03:36;15.633333333333333;14.316666666666666;
46381;PMS5003;66809;52.974;-2.514;2023-03-05T07:05:37;15.616666666666667;14.333333333333334;
46381;PMS5003;66809;52.974;-2.514;2023-03-05T07:07:37;15.633333333333333;14.333333333333334;
46381;PMS5003;66809;52.974;-2.514;2023-03-05T07:09:37;15.566666666666666;14.3;
46381;PMS5003;66809;52.974;-2.514;2023-03-05T07:11:36;15.566666666666666;14.266666666666667;
46381;PMS5003;66809;52.974;-2.514;2023-03-05T07:13:37;15.433333333333334;14.133333333333333;
46381;PMS5003;66809;52.974;-2.514;2023-03-05T07:15:37;15.4;14.1;
46381;PMS5003;66809;52.974;-2.514;2023-03-05T07:17:37;15.316666666666666;14.0;
46381;PMS5003;66809;52.974;-2.514;2023-03-05T07:19:37;15.25;13.983333333333333;
46381;PMS5003;66809;52.974;-2.514;2023-03-05T07:21:36;15.333333333333334;14.016666666666667;
46381;PMS5003;66809;52.974;-2.514;2023-03-05T07:23:37;15.333333333333334;13.983333333333333;
46381;PMS5003;66809;52.974;-2.514;2023-03-05T07:25:37;15.216666666666667;13.866666666666667;
46381;PMS5003;66809;52.974;-2.514;2023-03-05T07:27:37;15.25;13.9;
46381;PMS5003;66809;52.974;-2.514;2023-03-05T07:29:36;15.266666666666667;13.933333333333334;
46381;PMS5003;66809;52.974;-2.514;2023-03-05T07:31:36;15.3;13.916666666666666;
46381;PMS5003;66809;52.974;-2.514;2023-03-05T07:33:37;15.4;14.016666666666667;
46381;PMS5003;66809;52.974;-2.514;2023-03-05T07:35:38;15.283333333333333;13.85;
46381;PMS5003;66809;52.974;-2.514;2023-03-05T07:37:36;15.066666666666666;13.7;
46381;PMS5003;66809;52.974;-2.514;2023-03-05T07:39:37;14.766666666666667;13.45;
46381;PMS5003;66809;52.974;-2.514;2023-03-05T07:41:37;14.666666666666666;13.35;
46381;PMS5003;66809;52.974;-2.514;2023-03-05T07:43:37;14.566666666666666;13.25;
46381;PMS5003;66809;52.974;-2.514;2023-03-05T07:45:38;14.5;13.2;
46381;PMS5003;66809;52.974;-2.514;2023-03-05T07:47:36;14.533333333333333;13.233333333333333;
46381;PMS5003;66809;52.974;-2.514;2023-03-05T07:49:37;14.416666666666666;13.116666666666667;
46381;PMS5003;66809;52.974;-2.514;2023-03-05T07:51:36;14.233333333333333;13.0;
46381;PMS5003;66809;52.974;-2.514;2023-03-05T07:53:37;13.7;12.566666666666666;
46381;PMS5003;66809;52.974;-2.514;2023-03-05T07:55:40;13.066666666666666;11.966666666666667;
46381;PMS5003;66809;52.974;-2.514;2023-03-05T07:57:36;12.8;11.85;
46381;PMS5003;66809;52.974;-2.514;2023-03-05T07:59:37;12.716666666666667;11.75;
46381;PMS5003;66809;52.974;-2.514;2023-03-05T08:01:37;12.583333333333334;11.6;
46381;PMS5003;66809;52.974;-2.514;2023-03-05T08:03:37;12.466666666666667;11.516666666666667;
46381;PMS5003;66809;52.974;-2.514;2023-03-05T08:05:37;12.466666666666667;11.516666666666667;
46381;PMS5003;66809;52.974;-2.514;2023-03-05T08:07:36;12.433333333333334;11.466666666666667;
46381;PMS5003;66809;52.974;-2.514;2023-03-05T08:09:37;12.433333333333334;11.383333333333333;
46381;PMS5003;66809;52.974;-2.514;2023-03-05T08:11:38;12.3;11.266666666666667;
46381;PMS5003;66809;52.974;-2.514;2023-03-05T08:13:36;12.233333333333333;11.216666666666667;
46381;PMS5003;66809;52.974;-2.514;2023-03-05T08:15:37;12.133333333333333;11.133333333333333;
46381;PMS5003;66809;52.974;-2.514;2023-03-05T08:17:37;11.966666666666667;10.966666666666667;
46381;PMS5003;66809;52.974;-2.514;2023-03-05T08:19:37;11.75;10.766666666666667;
46381;PMS5003;66809;52.974;-2.514;2023-03-05T08:21:37;11.566666666666666;10.65;
46381;PMS5003;66809;52.974;-2.514;2023-03-05T08:23:36;11.466666666666667;10.583333333333334;
46381;PMS5003;66809;52.974;-2.514;2023-03-05T08:25:37;11.383333333333333;10.5;
46381;PMS5003;66809;52.974;-2.514;2023-03-05T08:27:37;11.316666666666666;10.45;
46381;PMS5003;66809;52.974;-2.514;2023-03-05T08:29:36;11.2;10.316666666666666;
46381;PMS5003;66809;52.974;-2.514;2023-03-05T08:31:37;11.116666666666667;10.283333333333333;
46381;PMS5003;66809;52.974;-2.514;2023-03-05T08:33:37;10.916666666666666;10.133333333333333;
46381;PMS5003;66809;52.974;-2.514;2023-03-05T08:35:36;10.85;10.133333333333333;
46381;PMS5003;66809;52.974;-2.514;2023-03-05T08:37:36;10.8;10.05;
46381;PMS5003;66809;52.974;-2.514;2023-03-05T08:39:37;10.95;10.166666666666666;
46381;PMS5003;66809;52.974;-2.514;2023-03-05T08:41:37;10.966666666666667;10.2;
46381;PMS5003;66809;52.974;-2.514;2023-03-05T08:43:36;11.016666666666667;10.25;
46381;PMS5003;66809;52.974;-2.514;2023-03-05T08:45:37;10.966666666666667;10.216666666666667;
46381;PMS5003;66809;52.974;-2.514;2023-03-05T08:47:36;10.8;10.05;
46381;PMS5003;66809;52.974;-2.514;2023-03-05T08:49:37;10.75;9.983333333333333;
46381;PMS5003;66809;52.974;-2.514;2023-03-05T08:51:36;10.683333333333334;9.916666666666666;
46381;PMS5003;66809;52.974;-2.514;2023-03-05T08:53:37;10.616666666666667;9.8;
46381;PMS5003;66809;52.974;-2.514;2023-03-05T08:55:37;10.55;9.716666666666667;
46381;PMS5003;66809;52.974;-2.514;2023-03-05T08:57:36;10.45;9.6;
46381;PMS5003;66809;52.974;-2.514;2023-03-05T08:59:37;10.316666666666666;9.466666666666667;
46381;PMS5003;66809;52.974;-2.514;2023-03-05T09:01:37;10.216666666666667;9.383333333333333;
46381;PMS5003;66809;52.974;-2.514;2023-03-05T09:03:36;10.083333333333334;9.25;
46381;PMS5003;66809;52.974;-2.514;2023-03-05T09:05:37;9.966666666666667;9.15;
46381;PMS5003;66809;52.974;-2.514;2023-03-05T09:07:37;9.9;9.1;
46381;PMS5003;66809;52.974;-2.514;2023-03-05T09:09:36;9.716666666666667;9.0;
46381;PMS5003;66809;52.974;-2.514;2023-03-05T09:11:37;9.583333333333334;8.916666666666666;
46381;PMS5003;66809;52.974;-2.514;2023-03-05T09:13:37;9.416666666666666;8.75;
46381;PMS5003;66809;52.974;-2.514;2023-03-05T09:15:37;9.4;8.683333333333334;
46381;PMS5003;66809;52.974;-2.514;2023-03-05T09:17:37;9.366666666666667;8.65;
46381;PMS5003;66809;52.974;-2.514;2023-03-05T09:19:37;9.316666666666666;8.6;
46381;PMS5003;66809;52.974;-2.514;2023-03-05T09:21:37;9.216666666666667;8.483333333333333;
46381;PMS5003;66809;52.974;-2.514;2023-03-05T09:23:36;9.1;8.366666666666667;
46381;PMS5003;66809;52.974;-2.514;2023-03-05T09:25:38;9.0;8.25;
46381;PMS5003;66809;52.974;-2.514;2023-03-05T09:27:37;8.966666666666667;8.216666666666667;
46381;PMS5003;66809;52.974;-2.514;2023-03-05T09:29:37;9.016666666666667;8.2;
46381;PMS5003;66809;52.974;-2.514;2023-03-05T09:31:36;8.883333333333333;8.083333333333334;
46381;PMS5003;66809;52.974;-2.514;2023-03-05T09:33:37;8.783333333333333;8.0;